Time;durP1;ratioP1;P1;durP2;ratioP2;P2;SDS_P1;SDS_P2;PMS_P1;PMS_P2;Temp;Humidity;BMP_temperature;BMP_pressure;BME280_temperature;BME280_humidity;BME280_pressure;Samples;Min_cycle;Max_cycle;Signal;HPM_P1;HPM_P2
2022/04/10 00:01:33;;;;;;;9.23;2.67;;;2.40;99.90;;;;;;6143183;23;20009;-92
2022/04/10 00:03:59;;;;;;;7.05;2.70;;;2.40;99.90;;;;;;6141345;23;20037;-93
2022/04/10 00:06:25;;;;;;;6.82;2.60;;;2.30;99.90;;;;;;6146270;23;20013;-93
2022/04/10 00:08:51;;;;;;;7.50;2.42;;;2.20;99.90;;;;;;6151874;23;20008;-93
2022/04/10 00:11:17;;;;;;;5.43;2.40;;;2.20;99.90;;;;;;6144268;23;20006;-93
2022/04/10 00:13:42;;;;;;;8.75;2.30;;;2.20;99.90;;;;;;6139039;23;20344;-95
2022/04/10 00:16:08;;;;;;;11.50;2.65;;;2.30;99.90;;;;;;6135103;23;20008;-93
2022/04/10 00:18:37;;;;;;;8.07;3.00;;;2.30;99.90;;;;;;6134277;23;20097;-94
2022/04/10 00:21:04;;;;;;;8.55;3.17;;;2.20;99.90;;;;;;6134385;23;20025;-93
2022/04/10 00:23:31;;;;;;;6.93;2.58;;;2.20;99.90;;;;;;6134338;23;20033;-93
2022/04/10 00:25:56;;;;;;;7.78;2.75;;;2.10;99.90;;;;;;6159626;23;20014;-92
2022/04/10 00:28:22;;;;;;;6.30;2.63;;;2.10;99.90;;;;;;6134711;23;20017;-93
2022/04/10 00:30:51;;;;;;;10.43;3.63;;;2.20;99.90;;;;;;6135362;23;20009;-92
2022/04/10 00:33:17;;;;;;;5.10;2.28;;;2.10;99.90;;;;;;6161825;23;20010;-93
2022/04/10 00:35:42;;;;;;;8.65;2.45;;;2.20;99.90;;;;;;6142036;23;20048;-94
2022/04/10 00:38:09;;;;;;;7.85;2.40;;;2.20;99.90;;;;;;6143058;23;20002;-94
2022/04/10 00:40:35;;;;;;;9.65;3.22;;;2.10;99.90;;;;;;6137331;23;20020;-94
2022/04/10 00:43:01;;;;;;;7.65;4.07;;;2.10;99.90;;;;;;6134137;23;20084;-93
2022/04/10 00:45:27;;;;;;;6.13;3.38;;;2.00;99.90;;;;;;6133208;23;20010;-93
2022/04/10 00:47:52;;;;;;;9.23;3.45;;;1.90;99.90;;;;;;6133529;23;20044;-93
2022/04/10 00:50:19;;;;;;;9.48;3.25;;;1.90;99.90;;;;;;6133610;23;20006;-93
2022/04/10 00:52:47;;;;;;;9.30;3.30;;;1.80;99.90;;;;;;6133455;23;20373;-92
2022/04/10 00:55:15;;;;;;;6.93;2.50;;;1.80;99.90;;;;;;6132742;23;20425;-92
2022/04/10 00:57:41;;;;;;;10.55;2.08;;;1.80;99.90;;;;;;6133551;23;20406;-92
2022/04/10 01:00:10;;;;;;;8.93;2.30;;;1.80;99.90;;;;;;6133922;23;20009;-92
2022/04/10 01:02:37;;;;;;;15.20;3.33;;;1.70;99.90;;;;;;6159726;23;20069;-92
2022/04/10 01:05:04;;;;;;;8.95;2.20;;;1.70;99.90;;;;;;6159981;23;20433;-93
2022/04/10 01:07:30;;;;;;;12.40;4.15;;;1.70;99.90;;;;;;6133704;23;19997;-92
2022/04/10 01:09:58;;;;;;;12.75;3.45;;;1.60;99.90;;;;;;6133541;23;20009;-93
2022/04/10 01:12:24;;;;;;;6.55;2.63;;;1.50;99.90;;;;;;6133915;23;20008;-93
2022/04/10 01:14:51;;;;;;;11.65;2.80;;;1.50;99.90;;;;;;6131853;23;20156;-94
2022/04/10 01:17:17;;;;;;;6.50;2.10;;;1.50;99.90;;;;;;6131463;23;20015;-92
2022/04/10 01:19:43;;;;;;;10.65;2.45;;;1.50;99.90;;;;;;6157026;23;20388;-93
2022/04/10 01:22:12;;;;;;;4.20;1.35;;;1.50;99.90;;;;;;6131377;23;20010;-92
2022/04/10 01:24:40;;;;;;;8.43;1.98;;;1.40;99.90;;;;;;6156598;23;20019;-92
2022/04/10 01:27:06;;;;;;;4.55;1.85;;;1.40;99.90;;;;;;6131619;23;20040;-93
2022/04/10 01:29:33;;;;;;;7.68;1.60;;;1.40;99.90;;;;;;6131795;23;20092;-93
2022/04/10 01:31:59;;;;;;;3.60;1.88;;;1.40;99.90;;;;;;6133058;23;20013;-92
2022/04/10 01:34:25;;;;;;;3.63;1.55;;;1.40;99.90;;;;;;6134310;23;20096;-93
2022/04/10 01:36:51;;;;;;;5.80;2.08;;;1.40;99.90;;;;;;6166944;23;20480;-92
2022/04/10 01:39:17;;;;;;;13.32;2.30;;;1.40;99.90;;;;;;6144097;23;20029;-93
2022/04/10 01:41:46;;;;;;;5.38;2.58;;;1.30;99.90;;;;;;6133681;23;20009;-93
2022/04/10 01:44:12;;;;;;;4.22;2.22;;;1.20;99.90;;;;;;6132287;23;20056;-92
2022/04/10 01:46:38;;;;;;;7.60;2.00;;;1.10;99.90;;;;;;6131290;23;20017;-93
2022/04/10 01:49:05;;;;;;;4.43;2.13;;;1.10;99.90;;;;;;6131202;23;20348;-93
2022/04/10 01:51:31;;;;;;;4.85;2.13;;;1.10;99.90;;;;;;6137839;23;20009;-92
2022/04/10 01:53:58;;;;;;;7.53;2.20;;;1.10;99.90;;;;;;6148852;23;20006;-93
2022/04/10 01:56:24;;;;;;;4.50;1.55;;;1.10;99.90;;;;;;6137151;23;20012;-93
2022/04/10 01:58:53;;;;;;;9.27;1.90;;;1.10;99.90;;;;;;6140188;23;20037;-92
2022/04/10 02:01:21;;;;;;;8.77;1.90;;;1.10;99.90;;;;;;6177605;23;20033;-92
2022/04/10 02:03:46;;;;;;;9.10;2.67;;;1.10;99.90;;;;;;6156496;23;20004;-92
2022/04/10 02:06:14;;;;;;;6.13;1.83;;;1.00;99.90;;;;;;6155787;23;20084;-92
2022/04/10 02:08:42;;;;;;;4.90;2.08;;;1.00;99.90;;;;;;6143000;23;20001;-92
2022/04/10 02:11:18;;;;;;;5.18;2.40;;;1.00;99.90;;;;;;6132326;23;20014;-93
2022/04/10 02:13:45;;;;;;;4.72;2.55;;;0.90;99.90;;;;;;6132777;23;20437;-93
2022/04/10 02:16:13;;;;;;;6.53;2.80;;;0.90;99.90;;;;;;6131774;23;20002;-92
2022/04/10 02:18:38;;;;;;;5.93;2.05;;;0.80;99.90;;;;;;6131865;23;20070;-92
2022/04/10 02:21:05;;;;;;;3.55;1.73;;;0.80;99.90;;;;;;6131487;23;20040;-92
2022/04/10 02:23:30;;;;;;;4.18;2.13;;;0.80;99.90;;;;;;6131386;23;20001;-93
2022/04/10 02:25:57;;;;;;;10.80;2.75;;;0.80;99.90;;;;;;6131338;23;20024;-92
2022/04/10 02:28:22;;;;;;;7.07;2.03;;;0.80;99.90;;;;;;6157385;23;20025;-92
2022/04/10 02:30:48;;;;;;;8.90;1.92;;;0.80;99.90;;;;;;6132007;23;20005;-92
2022/04/10 02:33:14;;;;;;;5.47;2.10;;;0.80;99.90;;;;;;6157684;23;20361;-93
2022/04/10 02:35:43;;;;;;;3.55;2.30;;;0.80;99.90;;;;;;6131200;23;20052;-92
2022/04/10 02:38:09;;;;;;;4.45;2.17;;;0.70;99.90;;;;;;6107759;23;20010;-92
2022/04/10 02:40:35;;;;;;;7.82;2.45;;;0.70;99.90;;;;;;6131507;23;20006;-92
2022/04/10 02:43:00;;;;;;;5.35;1.95;;;0.70;99.90;;;;;;6131346;23;20480;-92
2022/04/10 02:45:26;;;;;;;7.03;2.20;;;0.60;99.90;;;;;;6130787;23;20060;-92
2022/04/10 02:47:52;;;;;;;9.88;2.17;;;0.60;99.90;;;;;;6132637;23;20028;-93
2022/04/10 02:50:18;;;;;;;5.45;1.90;;;0.60;99.90;;;;;;6137123;23;20010;-92
2022/04/10 02:52:44;;;;;;;6.13;2.08;;;0.60;99.90;;;;;;6136453;23;20032;-92
2022/04/10 02:55:10;;;;;;;7.82;2.33;;;0.60;99.90;;;;;;6133319;23;20028;-92
2022/04/10 02:57:36;;;;;;;6.07;2.22;;;0.60;99.90;;;;;;6133537;23;20013;-92
2022/04/10 03:00:06;;;;;;;5.45;2.00;;;0.70;99.90;;;;;;6134950;23;20468;-93
2022/04/10 03:02:31;;;;;;;4.97;1.95;;;0.60;99.90;;;;;;6163974;23;20048;-92
2022/04/10 03:04:57;;;;;;;8.20;2.20;;;0.60;99.90;;;;;;6151491;23;20077;-93
2022/04/10 03:07:23;;;;;;;4.47;2.58;;;0.50;99.90;;;;;;6146691;23;20005;-92
2022/04/10 03:09:49;;;;;;;10.82;2.75;;;0.50;99.90;;;;;;6164422;23;20028;-92
2022/04/10 03:12:15;;;;;;;5.35;2.30;;;0.40;99.90;;;;;;6162146;23;20008;-92
2022/04/10 03:14:40;;;;;;;8.57;2.67;;;0.40;99.90;;;;;;6134381;23;20012;-92
2022/04/10 03:17:06;;;;;;;6.88;2.35;;;0.30;99.90;;;;;;6138943;23;20092;-92
2022/04/10 03:19:32;;;;;;;9.63;2.55;;;0.30;99.90;;;;;;6138522;23;20006;-94
2022/04/10 03:21:58;;;;;;;6.40;2.55;;;0.30;99.90;;;;;;6138198;23;20318;-93
2022/04/10 03:24:23;;;;;;;9.18;2.60;;;0.30;99.90;;;;;;6133472;23;20001;-93
2022/04/10 03:26:49;;;;;;;6.45;2.25;;;0.20;99.90;;;;;;6132535;23;20060;-93
2022/04/10 03:29:15;;;;;;;7.03;2.28;;;0.20;99.90;;;;;;6133111;23;20014;-94
2022/04/10 03:31:41;;;;;;;8.00;2.00;;;0.20;99.90;;;;;;6133028;23;20013;-92
2022/04/10 03:34:06;;;;;;;8.45;2.75;;;0.20;99.90;;;;;;6132653;23;19998;-92
2022/04/10 03:36:33;;;;;;;8.85;2.13;;;0.20;99.90;;;;;;6108927;23;20064;-93
2022/04/10 03:39:00;;;;;;;7.32;1.92;;;0.20;99.90;;;;;;6147295;23;20021;-93
2022/04/10 03:41:26;;;;;;;5.40;2.10;;;0.20;99.90;;;;;;6166807;23;20027;-93
2022/04/10 03:43:52;;;;;;;6.40;2.20;;;0.10;99.90;;;;;;6168628;23;20017;-92
2022/04/10 03:46:18;;;;;;;8.68;2.70;;;0.10;99.90;;;;;;6165090;23;20085;-93
2022/04/10 03:48:43;;;;;;;6.47;2.40;;;0.10;99.90;;;;;;6131314;23;20025;-93
2022/04/10 03:51:09;;;;;;;7.85;2.30;;;0.00;99.90;;;;;;6162285;23;20056;-93
2022/04/10 03:53:35;;;;;;;9.35;2.55;;;0.00;99.90;;;;;;6163385;23;20013;-92
2022/04/10 03:56:01;;;;;;;4.82;2.33;;;0.00;99.90;;;;;;6158220;23;20481;-92
2022/04/10 03:58:27;;;;;;;6.38;2.17;;;0.00;99.90;;;;;;6156127;23;20080;-91
2022/04/10 04:00:53;;;;;;;7.85;2.38;;;0.00;99.90;;;;;;6171861;23;20013;-92
2022/04/10 04:03:20;;;;;;;3.95;2.65;;;-0.10;99.90;;;;;;6143408;23;20018;-91
2022/04/10 04:05:46;;;;;;;7.72;2.50;;;-0.10;99.90;;;;;;6086311;23;20018;-92
2022/04/10 04:08:12;;;;;;;8.38;2.28;;;-0.10;99.90;;;;;;6167287;23;20455;-92
2022/04/10 04:10:38;;;;;;;6.93;2.17;;;-0.10;99.90;;;;;;6147635;23;19994;-92
2022/04/10 04:13:04;;;;;;;7.97;2.25;;;-0.10;99.90;;;;;;6178662;23;20110;-93
2022/04/10 04:15:29;;;;;;;8.40;2.35;;;-0.20;99.90;;;;;;6168463;23;20345;-91
2022/04/10 04:17:55;;;;;;;6.68;2.00;;;-0.20;99.90;;;;;;6164007;23;20477;-91
2022/04/10 04:20:22;;;;;;;5.13;2.22;;;-0.20;99.90;;;;;;6143733;23;20065;-92
2022/04/10 04:22:48;;;;;;;10.20;2.42;;;-0.20;99.90;;;;;;6167406;23;20061;-92
2022/04/10 04:25:14;;;;;;;7.05;2.33;;;-0.20;99.90;;;;;;6134907;23;20084;-91
2022/04/10 04:27:40;;;;;;;7.90;3.63;;;-0.30;99.90;;;;;;6140116;23;20085;-92
2022/04/10 04:30:07;;;;;;;5.38;1.90;;;-0.30;99.90;;;;;;6160083;23;20152;-92
2022/04/10 04:32:32;;;;;;;9.55;2.58;;;-0.30;99.90;;;;;;6164946;23;20014;-91
2022/04/10 04:34:58;;;;;;;9.55;2.55;;;-0.30;99.90;;;;;;6144036;23;20393;-93
2022/04/10 04:37:24;;;;;;;5.57;2.30;;;-0.30;99.90;;;;;;6135366;23;20045;-91
2022/04/10 04:39:49;;;;;;;5.65;2.03;;;-0.30;99.90;;;;;;6174860;23;20044;-93
2022/04/10 04:42:15;;;;;;;10.70;2.50;;;-0.30;99.90;;;;;;6161145;23;20334;-93
2022/04/10 04:44:41;;;;;;;5.95;2.28;;;-0.30;99.90;;;;;;6133859;23;20016;-93
2022/04/10 04:47:07;;;;;;;8.85;2.78;;;-0.30;99.90;;;;;;6133355;23;20012;-94
2022/04/10 04:49:32;;;;;;;6.45;2.20;;;-0.40;99.90;;;;;;6133375;23;20024;-93
2022/04/10 04:51:58;;;;;;;8.18;2.50;;;-0.40;99.90;;;;;;6159462;23;20005;-91
2022/04/10 04:54:23;;;;;;;7.13;2.75;;;-0.40;99.90;;;;;;6133869;23;20299;-91
2022/04/10 04:56:49;;;;;;;7.30;2.38;;;-0.40;99.90;;;;;;6133424;23;20062;-91
2022/04/10 04:59:15;;;;;;;6.95;2.47;;;-0.40;99.90;;;;;;6132797;23;20013;-91
2022/04/10 05:01:45;;;;;;;8.07;3.28;;;-0.40;99.90;;;;;;6134241;23;20007;-92
2022/04/10 05:04:11;;;;;;;5.70;2.30;;;-0.40;99.90;;;;;;6161010;23;20009;-92
2022/04/10 05:06:38;;;;;;;9.45;2.42;;;-0.40;99.90;;;;;;6133900;23;20021;-91
2022/04/10 05:09:05;;;;;;;8.85;2.53;;;-0.40;99.90;;;;;;6133997;23;20480;-91
2022/04/10 05:11:30;;;;;;;7.57;2.70;;;-0.40;99.90;;;;;;6134061;23;20438;-91
2022/04/10 05:13:56;;;;;;;7.75;2.65;;;-0.40;99.90;;;;;;6134248;23;19997;-92
2022/04/10 05:16:22;;;;;;;13.43;3.20;;;-0.40;99.90;;;;;;6133691;23;20006;-92
2022/04/10 05:18:50;;;;;;;7.47;2.13;;;-0.50;99.90;;;;;;6158906;23;20002;-91
2022/04/10 05:21:16;;;;;;;6.05;2.55;;;-0.50;99.90;;;;;;6133819;23;20002;-91
2022/04/10 05:23:42;;;;;;;8.80;2.88;;;-0.50;99.90;;;;;;6136078;23;20085;-91
2022/04/10 05:26:07;;;;;;;12.98;2.17;;;-0.40;99.90;;;;;;6145974;23;20009;-91
2022/04/10 05:28:34;;;;;;;5.10;2.28;;;-0.40;99.90;;;;;;6138252;23;20006;-91
2022/04/10 05:31:02;;;;;;;8.52;2.72;;;-0.40;99.90;;;;;;6133372;23;20005;-92
2022/04/10 05:33:28;;;;;;;6.15;2.40;;;-0.40;99.90;;;;;;6132998;23;20004;-91
2022/04/10 05:35:55;;;;;;;6.35;2.78;;;-0.30;99.90;;;;;;6131814;23;20132;-91
2022/04/10 05:38:22;;;;;;;12.73;2.92;;;-0.30;99.90;;;;;;6132756;23;20037;-91
2022/04/10 05:40:52;;;;;;;11.68;3.40;;;-0.30;99.90;;;;;;6133297;23;20089;-92
2022/04/10 05:43:20;;;;;;;5.07;2.70;;;-0.30;99.90;;;;;;6134693;23;20332;-91
2022/04/10 05:45:46;;;;;;;9.50;3.05;;;-0.30;99.90;;;;;;6135601;23;20013;-92
2022/04/10 05:48:12;;;;;;;9.88;3.90;;;-0.30;99.90;;;;;;6136045;23;20021;-91
2022/04/10 05:50:37;;;;;;;7.65;2.78;;;-0.30;99.90;;;;;;6141888;23;20060;-92
2022/04/10 05:53:03;;;;;;;7.57;3.25;;;-0.40;99.90;;;;;;6138691;23;20004;-92
2022/04/10 05:55:29;;;;;;;12.02;3.83;;;-0.40;99.90;;;;;;6138571;23;20016;-92
2022/04/10 05:57:55;;;;;;;9.23;3.95;;;-0.40;99.90;;;;;;6138460;23;20066;-93
2022/04/10 06:00:21;;;;;;;9.10;3.63;;;-0.40;99.90;;;;;;6134253;23;20021;-92
2022/04/10 06:02:47;;;;;;;8.88;3.50;;;-0.40;99.90;;;;;;6113648;23;20005;-92
2022/04/10 06:05:13;;;;;;;10.80;3.85;;;-0.40;99.90;;;;;;6163343;23;20032;-91
2022/04/10 06:07:38;;;;;;;14.18;3.55;;;-0.40;99.90;;;;;;6114482;23;20068;-92
2022/04/10 06:10:05;;;;;;;9.65;3.83;;;-0.30;99.90;;;;;;6164768;23;20033;-92
2022/04/10 06:12:31;;;;;;;11.20;3.60;;;-0.40;99.90;;;;;;6169005;23;20425;-91
2022/04/10 06:14:57;;;;;;;10.32;3.97;;;-0.30;99.90;;;;;;6159259;23;20001;-93
2022/04/10 06:17:22;;;;;;;8.20;3.50;;;-0.30;99.90;;;;;;6133697;23;20441;-92
2022/04/10 06:19:49;;;;;;;7.68;3.17;;;-0.30;99.90;;;;;;6135742;23;20005;-92
2022/04/10 06:22:15;;;;;;;10.25;3.67;;;-0.30;99.90;;;;;;6118413;23;20075;-93
2022/04/10 06:24:41;;;;;;;7.78;3.80;;;-0.20;99.90;;;;;;6153540;23;20020;-92
2022/04/10 06:27:07;;;;;;;16.52;3.70;;;-0.20;99.90;;;;;;6147139;23;20347;-92
2022/04/10 06:29:33;;;;;;;5.07;2.88;;;-0.10;99.90;;;;;;6162870;23;20425;-92
2022/04/10 06:31:59;;;;;;;11.00;3.80;;;-0.10;99.90;;;;;;6159863;23;20093;-92
2022/04/10 06:34:25;;;;;;;13.20;3.05;;;0.00;99.90;;;;;;6159595;23;20476;-92
2022/04/10 06:36:50;;;;;;;8.43;3.20;;;0.00;99.90;;;;;;6132835;23;20108;-92
2022/04/10 06:39:16;;;;;;;10.93;3.88;;;0.00;99.90;;;;;;6132745;23;20006;-92
2022/04/10 06:41:42;;;;;;;11.88;4.10;;;0.00;99.90;;;;;;6132607;23;20012;-92
2022/04/10 06:44:09;;;;;;;12.07;4.55;;;0.00;99.90;;;;;;6157826;23;20032;-92
2022/04/10 06:46:35;;;;;;;7.70;3.70;;;0.10;99.90;;;;;;6158692;23;20039;-91
2022/04/10 06:49:01;;;;;;;12.15;4.28;;;0.10;99.90;;;;;;6133088;23;20006;-92
2022/04/10 06:51:27;;;;;;;10.20;3.58;;;0.10;99.90;;;;;;6160145;23;20447;-91
2022/04/10 06:53:52;;;;;;;12.60;3.85;;;0.10;99.90;;;;;;6142325;23;20001;-91
2022/04/10 06:56:18;;;;;;;13.30;4.70;;;0.20;99.90;;;;;;6144340;23;20005;-91
2022/04/10 06:58:44;;;;;;;12.98;4.75;;;0.20;99.90;;;;;;6160467;23;20029;-91
2022/04/10 07:01:10;;;;;;;6.65;3.35;;;0.30;99.90;;;;;;6141418;23;20005;-92
2022/04/10 07:03:36;;;;;;;9.20;4.07;;;0.30;99.90;;;;;;6133688;23;20005;-92
2022/04/10 07:06:02;;;;;;;13.45;3.50;;;0.30;99.90;;;;;;6133342;23;20024;-93
2022/04/10 07:08:27;;;;;;;16.30;4.65;;;0.40;99.90;;;;;;6158513;23;20076;-92
2022/04/10 07:10:53;;;;;;;17.10;5.78;;;0.40;99.90;;;;;;6134079;23;20005;-92
2022/04/10 07:13:22;;;;;;;11.70;4.40;;;0.40;99.90;;;;;;6165133;23;19997;-92
2022/04/10 07:15:50;;;;;;;12.77;3.78;;;0.50;99.90;;;;;;6178481;23;20013;-90
2022/04/10 07:18:16;;;;;;;10.27;4.25;;;0.50;99.90;;;;;;6144828;23;20381;-92
2022/04/10 07:20:42;;;;;;;6.90;3.67;;;0.60;99.90;;;;;;6136447;23;20084;-91
2022/04/10 07:25:53;;;;;;;14.80;3.72;;;0.70;99.90;;;;;;6160617;23;20056;-91
2022/04/10 07:28:20;;;;;;;10.63;3.60;;;0.70;99.90;;;;;;6133491;23;20082;-92
2022/04/10 07:30:46;;;;;;;9.98;3.47;;;0.80;99.90;;;;;;6133966;23;20481;-92
2022/04/10 07:33:11;;;;;;;11.80;3.42;;;0.90;99.90;;;;;;6135572;23;20018;-92
2022/04/10 07:35:40;;;;;;;10.82;3.17;;;0.90;99.90;;;;;;6135614;23;20024;-91
2022/04/10 07:38:06;;;;;;;9.52;3.20;;;1.00;99.90;;;;;;6134148;23;20502;-92
2022/04/10 07:40:32;;;;;;;8.95;3.25;;;1.10;99.90;;;;;;6134926;23;20005;-92
2022/04/10 07:42:59;;;;;;;11.75;3.70;;;1.20;99.90;;;;;;6134653;23;20008;-92
2022/04/10 07:48:10;;;;;;;9.13;3.35;;;1.40;99.90;;;;;;6167101;23;20037;-91
2022/04/10 07:50:37;;;;;;;17.27;3.97;;;1.40;99.90;;;;;;6135869;23;20006;-94
2022/04/10 07:53:02;;;;;;;12.88;3.28;;;1.50;99.90;;;;;;6132056;23;20056;-91
2022/04/10 07:55:28;;;;;;;12.68;3.50;;;1.60;99.90;;;;;;6132459;23;19997;-93
2022/04/10 07:57:54;;;;;;;8.60;3.90;;;1.60;99.90;;;;;;6132215;23;20044;-91
2022/04/10 08:00:21;;;;;;;8.68;3.58;;;1.80;99.90;;;;;;6157758;23;20006;-92
2022/04/10 08:02:50;;;;;;;15.50;3.58;;;1.80;99.90;;;;;;6132702;23;20013;-92
2022/04/10 08:05:18;;;;;;;8.60;3.55;;;1.90;99.90;;;;;;6134887;23;20020;-91
2022/04/10 08:07:44;;;;;;;12.27;3.53;;;2.00;99.90;;;;;;6170335;23;19998;-92
2022/04/10 08:10:14;;;;;;;10.98;3.50;;;2.10;99.90;;;;;;6149620;23;20000;-93
2022/04/10 08:12:44;;;;;;;7.95;3.45;;;2.10;99.90;;;;;;6158233;23;20002;-92
2022/04/10 08:15:11;;;;;;;8.02;3.05;;;2.30;99.90;;;;;;6158589;22;19998;-91
2022/04/10 08:17:37;;;;;;;7.78;3.10;;;2.30;99.90;;;;;;6170993;23;20045;-92
2022/04/10 08:20:04;;;;;;;11.85;4.00;;;2.40;99.90;;;;;;6154471;23;20016;-95
2022/04/10 08:22:32;;;;;;;8.63;4.22;;;2.50;99.90;;;;;;6134617;23;20322;-93
2022/04/10 08:25:07;;;;;;;9.18;3.50;;;2.70;99.90;;;;;;6134602;23;20009;-93
2022/04/10 08:27:34;;;;;;;10.27;3.47;;;2.80;99.90;;;;;;6135148;23;20533;-93
2022/04/10 08:30:00;;;;;;;10.35;3.15;;;2.90;99.90;;;;;;6161419;23;20002;-94
2022/04/10 08:32:25;;;;;;;14.40;3.67;;;3.00;99.90;;;;;;6143395;23;20009;-94
2022/04/10 08:34:52;;;;;;;10.02;2.45;;;3.20;99.90;;;;;;6151036;23;20010;-94
2022/04/10 08:37:18;;;;;;;17.48;3.63;;;3.30;99.90;;;;;;6179665;23;20010;-94
2022/04/10 08:39:45;;;;;;;8.20;3.20;;;3.40;99.90;;;;;;6139607;23;20078;-93
2022/04/10 08:42:10;;;;;;;9.05;3.22;;;3.60;99.90;;;;;;6144643;23;20422;-94
2022/04/10 08:44:36;;;;;;;13.23;3.65;;;3.70;99.90;;;;;;6143864;23;20029;-92
2022/04/10 08:47:04;;;;;;;18.05;4.65;;;3.80;99.90;;;;;;6138284;23;20016;-92
2022/04/10 08:49:30;;;;;;;8.93;3.22;;;4.00;99.90;;;;;;6135793;23;20005;-93
2022/04/10 08:51:59;;;;;;;10.00;3.47;;;4.10;99.90;;;;;;6134800;23;20044;-93
2022/04/10 08:54:26;;;;;;;8.82;3.28;;;4.30;99.90;;;;;;6111412;23;20017;-93
2022/04/10 08:56:52;;;;;;;14.90;4.38;;;4.40;99.90;;;;;;6135195;23;20001;-93
2022/04/10 08:59:20;;;;;;;13.93;4.03;;;4.60;99.90;;;;;;6164395;23;20002;-93
2022/04/10 09:01:53;;;;;;;12.38;3.63;;;4.80;99.90;;;;;;6145786;23;20002;-92
2022/04/10 09:04:23;;;;;;;16.65;4.32;;;5.00;99.90;;;;;;6135264;23;20013;-92
2022/04/10 09:06:58;;;;;;;16.08;3.42;;;5.20;99.90;;;;;;6175278;23;20065;-92
2022/04/10 09:09:24;;;;;;;10.38;2.80;;;5.40;99.90;;;;;;6141865;23;20124;-94
2022/04/10 09:11:55;;;;;;;12.20;3.60;;;5.60;99.90;;;;;;6136332;23;20005;-93
2022/04/10 09:14:22;;;;;;;11.93;2.90;;;5.80;99.90;;;;;;6141766;23;20065;-94
2022/04/10 09:17:11;;;;;;;8.63;2.70;;;6.10;99.90;;;;;;6141701;23;20056;-93
2022/04/10 09:19:48;;;;;;;11.32;2.50;;;6.30;99.90;;;;;;6134008;23;20055;-94
2022/04/10 09:22:27;;;;;;;7.53;3.00;;;6.50;99.90;;;;;;6133319;23;20006;-95
2022/04/10 09:25:09;;;;;;;7.28;1.83;;;6.70;99.90;;;;;;6133272;23;20021;-93
2022/04/10 09:27:38;;;;;;;9.00;2.47;;;7.00;99.90;;;;;;6140837;23;20016;-92
2022/04/10 09:30:06;;;;;;;5.95;1.90;;;7.20;99.90;;;;;;6140502;23;20006;-94
2022/04/10 09:32:44;;;;;;;5.38;1.67;;;7.50;99.90;;;;;;6134537;23;20002;-95
2022/04/10 09:35:12;;;;;;;8.02;2.30;;;7.70;99.90;;;;;;6133611;23;20041;-95
2022/04/10 09:37:53;;;;;;;2.28;1.40;;;8.00;99.90;;;;;;6133883;23;20005;-94
2022/04/10 09:40:34;;;;;;;6.07;1.92;;;8.10;99.90;;;;;;6133827;23;20005;-94
2022/04/10 09:43:04;;;;;;;;;;;8.20;99.90;;;;;;6139257;23;20013;-94
2022/04/10 09:45:30;;;;;;;5.43;2.22;;;8.30;99.90;;;;;;6137253;23;19908;-94
2022/04/10 09:47:56;;;;;;;7.20;1.42;;;8.50;97.80;;;;;;6135260;23;20016;-94
2022/04/10 09:50:32;;;;;;;7.18;1.50;;;8.70;96.60;;;;;;6134116;23;20011;-93
2022/04/10 09:52:58;;;;;;;4.97;1.58;;;8.90;95.70;;;;;;6133924;23;20014;-94
2022/04/10 09:55:35;;;;;;;6.35;2.17;;;9.10;95.10;;;;;;6134660;23;20398;-93
2022/04/10 09:58:04;;;;;;;6.85;1.92;;;9.10;94.10;;;;;;6133966;23;20005;-93
2022/04/10 10:00:31;;;;;;;3.58;1.30;;;9.30;93.80;;;;;;6160225;23;20005;-93
2022/04/10 10:02:58;;;;;;;4.53;1.67;;;9.50;93.40;;;;;;6134473;23;20430;-93
2022/04/10 10:05:24;;;;;;;4.93;1.67;;;9.50;92.60;;;;;;6133899;23;20089;-93
2022/04/10 10:07:50;;;;;;;5.35;1.42;;;9.60;92.30;;;;;;6133922;23;20008;-93
2022/04/10 10:10:20;;;;;;;4.13;1.38;;;9.70;91.80;;;;;;6134180;23;20015;-94
2022/04/10 10:12:48;;;;;;;6.47;1.55;;;9.80;91.30;;;;;;6134394;23;20008;-95
2022/04/10 10:15:14;;;;;;;4.22;1.38;;;9.90;90.60;;;;;;6135475;23;20101;-95
2022/04/10 10:17:42;;;;;;;4.10;1.20;;;10.10;90.00;;;;;;6136117;23;20044;-95
2022/04/10 10:20:09;;;;;;;2.25;1.02;;;10.20;88.20;;;;;;6133871;23;20002;-94
2022/04/10 10:22:35;;;;;;;6.35;1.10;;;10.40;87.30;;;;;;6133910;23;20067;-95
2022/04/10 10:25:09;;;;;;;4.82;0.88;;;10.40;85.00;;;;;;6134700;23;20013;-94
2022/04/10 10:28:00;;;;;;;2.28;1.20;;;10.60;83.20;;;;;;6134930;23;20068;-93
2022/04/10 10:30:26;;;;;;;3.25;1.40;;;10.60;80.90;;;;;;6135860;23;20064;-94
2022/04/10 10:32:56;;;;;;;6.63;1.27;;;10.60;80.50;;;;;;6134956;23;20013;-94
2022/04/10 10:35:31;;;;;;;8.05;2.03;;;10.70;79.70;;;;;;6134586;23;20524;-93
2022/04/10 10:37:57;;;;;;;2.75;0.88;;;10.90;79.70;;;;;;6139219;23;20071;-93
2022/04/10 10:40:23;;;;;;;2.15;0.95;;;11.00;78.60;;;;;;6147748;23;20013;-94
2022/04/10 10:42:50;;;;;;;7.65;1.45;;;11.10;76.60;;;;;;6147562;23;20005;-94
2022/04/10 10:45:33;;;;;;;1.98;1.23;;;11.20;75.60;;;;;;6155968;23;20001;-94
2022/04/10 10:48:38;;;;;;;7.57;1.38;;;11.30;75.70;;;;;;6176925;23;20005;-94
2022/04/10 10:51:10;;;;;;;5.05;1.20;;;11.40;74.80;;;;;;6139310;23;20005;-95
2022/04/10 10:53:53;;;;;;;2.65;1.30;;;11.60;74.50;;;;;;6135400;23;20008;-94
2022/04/10 10:56:27;;;;;;;2.72;1.08;;;11.70;73.00;;;;;;6136440;23;20092;-95
2022/04/10 10:58:55;;;;;;;2.70;1.15;;;11.90;73.10;;;;;;6136563;23;20315;-95
2022/04/10 11:01:28;;;;;;;4.03;0.90;;;12.10;72.60;;;;;;6136820;23;20004;-93
2022/04/10 11:04:05;;;;;;;6.55;1.20;;;12.30;71.50;;;;;;6133763;23;20009;-93
2022/04/10 11:06:43;;;;;;;3.08;1.55;;;12.40;68.80;;;;;;6135848;23;20013;-92
2022/04/10 11:09:27;;;;;;;3.33;1.10;;;12.40;67.00;;;;;;6134760;23;20001;-93
2022/04/10 11:11:57;;;;;;;2.95;0.90;;;12.60;67.90;;;;;;6110005;23;20025;-93
2022/04/10 11:14:41;;;;;;;2.78;1.13;;;12.80;68.10;;;;;;6134205;23;20025;-91
2022/04/10 11:17:30;;;;;;;7.10;1.42;;;13.00;67.90;;;;;;6140694;23;20474;-94
2022/04/10 11:20:01;;;;;;;6.05;1.55;;;13.20;67.10;;;;;;6138100;23;20037;-94
2022/04/10 11:22:36;;;;;;;5.90;1.42;;;13.40;66.90;;;;;;6139460;23;20013;-93
2022/04/10 11:25:09;;;;;;;2.72;1.13;;;13.40;66.20;;;;;;6141181;23;20005;-94
2022/04/10 11:28:07;;;;;;;3.05;1.27;;;13.50;65.80;;;;;;6141501;23;20013;-95
2022/04/10 11:30:52;;;;;;;5.57;1.35;;;13.70;65.50;;;;;;6163211;23;20321;-96
2022/04/10 11:33:18;;;;;;;4.60;1.45;;;13.80;65.20;;;;;;6141540;23;20021;-95
2022/04/10 11:35:55;;;;;;;3.78;1.38;;;14.00;64.40;;;;;;6136960;23;20017;-95
2022/04/10 11:38:23;;;;;;;4.13;1.42;;;14.10;63.60;;;;;;6139810;23;20017;-94
2022/04/10 11:40:51;;;;;;;4.90;1.77;;;14.10;63.30;;;;;;6142820;23;20013;-94
2022/04/10 11:43:19;;;;;;;5.25;1.98;;;14.10;61.60;;;;;;6139947;23;20029;-95
2022/04/10 11:45:53;;;;;;;5.22;1.30;;;14.00;62.10;;;;;;6146316;23;20033;-94
2022/04/10 11:48:19;;;;;;;7.28;1.50;;;14.10;62.50;;;;;;6141874;23;20089;-95
2022/04/10 11:50:46;;;;;;;3.20;1.67;;;14.10;61.90;;;;;;6138292;23;20401;-95
2022/04/10 11:53:13;;;;;;;8.32;1.85;;;14.10;61.60;;;;;;6142500;23;20010;-96
2022/04/10 11:55:43;;;;;;;2.55;1.55;;;14.00;61.40;;;;;;6148818;23;20016;-94
2022/04/10 11:58:24;;;;;;;3.65;1.60;;;14.00;61.90;;;;;;6155954;23;20016;-93
2022/04/10 12:00:51;;;;;;;;;;;14.10;61.40;;;;;;6182244;23;20007;-94
2022/04/10 12:03:18;;;;;;;6.03;1.50;;;14.00;59.70;;;;;;6153749;23;19911;-95
2022/04/10 12:05:45;;;;;;;5.30;1.67;;;14.10;60.30;;;;;;6152803;23;20150;-95
2022/04/10 12:08:11;;;;;;;7.03;1.90;;;14.00;59.70;;;;;;6144131;23;20036;-94
2022/04/10 12:10:37;;;;;;;5.60;2.03;;;14.10;60.60;;;;;;6117793;23;20092;-94
2022/04/10 12:13:05;;;;;;;3.40;1.60;;;14.10;60.60;;;;;;6140944;23;20345;-92
2022/04/10 12:15:33;;;;;;;2.92;1.60;;;14.40;61.00;;;;;;6148195;23;19998;-96
2022/04/10 12:18:10;;;;;;;6.70;2.10;;;14.60;60.80;;;;;;6152132;23;20005;-94
2022/04/10 12:20:44;;;;;;;4.78;2.00;;;14.70;60.70;;;;;;6154936;23;20010;-95
2022/04/10 12:23:20;;;;;;;6.90;2.35;;;14.90;60.60;;;;;;6158307;23;20013;-94
2022/04/10 12:25:51;;;;;;;5.50;1.80;;;15.00;59.80;;;;;;6155929;23;20022;-95
2022/04/10 12:28:19;;;;;;;4.82;1.70;;;15.10;59.50;;;;;;6154931;23;19992;-95
2022/04/10 12:30:47;;;;;;;3.97;1.85;;;15.20;59.40;;;;;;6156337;23;20002;-94
2022/04/10 12:33:14;;;;;;;4.10;1.65;;;15.40;59.10;;;;;;6152508;23;20001;-96
2022/04/10 12:35:47;;;;;;;3.38;1.50;;;15.60;58.60;;;;;;6146531;23;20013;-95
2022/04/10 12:38:16;;;;;;;2.88;1.70;;;15.60;57.80;;;;;;6154118;23;20006;-95
2022/04/10 12:40:42;;;;;;;5.63;2.65;;;15.50;56.60;;;;;;6138435;23;20521;-94
2022/04/10 12:43:09;;;;;;;5.32;1.67;;;15.50;57.10;;;;;;6145176;23;20006;-94
2022/04/10 12:45:37;;;;;;;6.50;1.88;;;15.50;57.10;;;;;;6149432;23;20009;-94
2022/04/10 12:48:27;;;;;;;4.45;1.63;;;15.60;57.40;;;;;;6148857;23;20005;-95
2022/04/10 12:51:06;;;;;;;5.85;2.03;;;15.70;57.20;;;;;;6154254;23;20017;-93
2022/04/10 12:53:32;;;;;;;4.47;2.13;;;15.70;56.20;;;;;;6157008;23;20244;-94
2022/04/10 12:55:59;;;;;;;7.20;1.70;;;15.50;56.10;;;;;;6158171;22;20001;-96
2022/04/10 12:58:30;;;;;;;4.05;1.88;;;15.40;56.30;;;;;;6181156;22;20001;-95
2022/04/10 13:00:57;;;;;;;3.55;1.45;;;15.30;56.10;;;;;;6157395;22;20029;-95